sensor_id;sensor_type;location;lat;lon;timestamp;pressure;altitude;pressure_sealevel;temperature;humidity
48035;BME280;33812;46.480;6.834;2022-09-17T00:03:14;93438.66;;;21.54;44.74
48035;BME280;33812;46.480;6.834;2022-09-17T00:07:16;93432.47;;;21.49;45.00
48035;BME280;33812;46.480;6.834;2022-09-17T00:11:20;93420.25;;;21.37;44.99
48035;BME280;33812;46.480;6.834;2022-09-17T00:15:22;93420.31;;;21.47;45.28
48035;BME280;33812;46.480;6.834;2022-09-17T00:19:24;93429.38;;;21.47;45.16
48035;BME280;33812;46.480;6.834;2022-09-17T00:23:26;93423.53;;;21.45;45.23
48035;BME280;33812;46.480;6.834;2022-09-17T00:27:29;93437.34;;;21.45;45.07
48035;BME280;33812;46.480;6.834;2022-09-17T00:31:31;93425.06;;;21.46;45.16
48035;BME280;33812;46.480;6.834;2022-09-17T00:35:33;93441.66;;;21.46;45.01
48035;BME280;33812;46.480;6.834;2022-09-17T00:39:35;93447.53;;;21.48;45.13
48035;BME280;33812;46.480;6.834;2022-09-17T00:43:43;93457.03;;;21.47;44.91
48035;BME280;33812;46.480;6.834;2022-09-17T00:47:51;93464.22;;;21.45;44.83
48035;BME280;33812;46.480;6.834;2022-09-17T00:51:56;93480.81;;;21.45;45.20
48035;BME280;33812;46.480;6.834;2022-09-17T00:56:05;93485.56;;;21.44;45.47
48035;BME280;33812;46.480;6.834;2022-09-17T01:00:12;93485.06;;;21.36;44.81
48035;BME280;33812;46.480;6.834;2022-09-17T01:04:15;93473.66;;;21.34;44.92
48035;BME280;33812;46.480;6.834;2022-09-17T01:08:24;93477.75;;;21.30;44.63
48035;BME280;33812;46.480;6.834;2022-09-17T01:12:38;93484.28;;;21.36;44.41
48035;BME280;33812;46.480;6.834;2022-09-17T01:16:47;93487.16;;;21.32;44.73
48035;BME280;33812;46.480;6.834;2022-09-17T01:21:19;93492.81;;;21.29;44.48
48035;BME280;33812;46.480;6.834;2022-09-17T01:25:31;93494.78;;;21.28;44.81
48035;BME280;33812;46.480;6.834;2022-09-17T01:29:53;93489.69;;;21.26;44.54
48035;BME280;33812;46.480;6.834;2022-09-17T01:34:04;93486.50;;;21.28;44.52
48035;BME280;33812;46.480;6.834;2022-09-17T01:38:10;93490.50;;;21.14;44.14
48035;BME280;33812;46.480;6.834;2022-09-17T01:42:17;93496.03;;;21.14;44.63
48035;BME280;33812;46.480;6.834;2022-09-17T01:46:27;93489.97;;;21.06;45.11
48035;BME280;33812;46.480;6.834;2022-09-17T01:50:38;93477.78;;;21.17;44.53
48035;BME280;33812;46.480;6.834;2022-09-17T01:54:43;93474.38;;;21.12;44.21
48035;BME280;33812;46.480;6.834;2022-09-17T01:58:52;93473.13;;;21.26;44.80
48035;BME280;33812;46.480;6.834;2022-09-17T02:03:00;93476.44;;;21.21;44.51
48035;BME280;33812;46.480;6.834;2022-09-17T02:07:07;93471.59;;;21.25;44.42
48035;BME280;33812;46.480;6.834;2022-09-17T02:11:12;93470.81;;;21.25;44.39
48035;BME280;33812;46.480;6.834;2022-09-17T02:15:19;93468.38;;;21.14;44.36
48035;BME280;33812;46.480;6.834;2022-09-17T02:19:27;93471.38;;;21.07;43.70
48035;BME280;33812;46.480;6.834;2022-09-17T02:23:40;93472.41;;;21.00;44.52
48035;BME280;33812;46.480;6.834;2022-09-17T02:27:49;93482.88;;;21.05;44.54
48035;BME280;33812;46.480;6.834;2022-09-17T02:31:52;93488.97;;;21.13;44.57
48035;BME280;33812;46.480;6.834;2022-09-17T02:35:54;93491.63;;;21.04;44.38
48035;BME280;33812;46.480;6.834;2022-09-17T02:39:57;93497.81;;;21.08;44.16
48035;BME280;33812;46.480;6.834;2022-09-17T02:44:07;93492.63;;;20.84;44.32
48035;BME280;33812;46.480;6.834;2022-09-17T02:48:34;93501.56;;;20.75;44.56
48035;BME280;33812;46.480;6.834;2022-09-17T02:52:48;93498.38;;;21.02;44.26
48035;BME280;33812;46.480;6.834;2022-09-17T02:57:04;93496.59;;;20.83;43.03
48035;BME280;33812;46.480;6.834;2022-09-17T03:01:14;93502.66;;;20.51;45.04
48035;BME280;33812;46.480;6.834;2022-09-17T03:05:19;93503.88;;;20.63;44.71
48035;BME280;33812;46.480;6.834;2022-09-17T03:09:22;93501.78;;;20.54;44.04
48035;BME280;33812;46.480;6.834;2022-09-17T03:13:25;93503.78;;;20.80;44.28
48035;BME280;33812;46.480;6.834;2022-09-17T03:17:26;93507.06;;;20.88;43.48
48035;BME280;33812;46.480;6.834;2022-09-17T03:21:28;93508.28;;;20.74;44.19
48035;BME280;33812;46.480;6.834;2022-09-17T03:25:31;93515.91;;;20.57;43.00
48035;BME280;33812;46.480;6.834;2022-09-17T03:29:34;93514.69;;;20.58;43.48
48035;BME280;33812;46.480;6.834;2022-09-17T03:33:36;93520.13;;;20.74;43.83
48035;BME280;33812;46.480;6.834;2022-09-17T03:37:38;93524.22;;;20.70;44.31
48035;BME280;33812;46.480;6.834;2022-09-17T03:41:39;93521.78;;;20.59;45.11
48035;BME280;33812;46.480;6.834;2022-09-17T03:45:43;93521.13;;;20.68;44.19
48035;BME280;33812;46.480;6.834;2022-09-17T03:49:45;93527.84;;;20.53;42.85
48035;BME280;33812;46.480;6.834;2022-09-17T03:53:46;93533.69;;;20.69;44.48
48035;BME280;33812;46.480;6.834;2022-09-17T03:57:48;93531.72;;;20.69;43.81
48035;BME280;33812;46.480;6.834;2022-09-17T04:01:52;93531.25;;;20.58;43.12
48035;BME280;33812;46.480;6.834;2022-09-17T04:05:53;93538.66;;;20.74;44.21
48035;BME280;33812;46.480;6.834;2022-09-17T04:09:56;93547.19;;;20.80;43.63
48035;BME280;33812;46.480;6.834;2022-09-17T04:13:57;93554.78;;;20.75;43.11
48035;BME280;33812;46.480;6.834;2022-09-17T04:18:01;93553.16;;;20.78;43.02
48035;BME280;33812;46.480;6.834;2022-09-17T04:22:02;93558.31;;;20.63;43.92
48035;BME280;33812;46.480;6.834;2022-09-17T04:26:04;93564.94;;;20.52;42.81
48035;BME280;33812;46.480;6.834;2022-09-17T04:30:07;93567.38;;;20.63;43.35
48035;BME280;33812;46.480;6.834;2022-09-17T04:34:10;93577.84;;;20.42;43.54
48035;BME280;33812;46.480;6.834;2022-09-17T04:38:12;93575.75;;;20.47;43.95
48035;BME280;33812;46.480;6.834;2022-09-17T04:42:17;93587.25;;;20.58;43.84
48035;BME280;33812;46.480;6.834;2022-09-17T04:46:19;93596.72;;;20.44;43.46
48035;BME280;33812;46.480;6.834;2022-09-17T04:50:22;93597.88;;;20.30;42.59
48035;BME280;33812;46.480;6.834;2022-09-17T04:54:24;93594.09;;;20.53;42.44
48035;BME280;33812;46.480;6.834;2022-09-17T04:58:26;93603.38;;;20.47;43.21
48035;BME280;33812;46.480;6.834;2022-09-17T05:02:30;93597.19;;;20.56;43.50
48035;BME280;33812;46.480;6.834;2022-09-17T05:06:33;93598.84;;;20.53;43.47
48035;BME280;33812;46.480;6.834;2022-09-17T05:10:35;93606.06;;;20.76;43.13
48035;BME280;33812;46.480;6.834;2022-09-17T05:14:36;93604.16;;;20.60;42.73
48035;BME280;33812;46.480;6.834;2022-09-17T05:18:38;93596.50;;;20.51;42.08
48035;BME280;33812;46.480;6.834;2022-09-17T05:22:43;93594.88;;;20.54;42.09
48035;BME280;33812;46.480;6.834;2022-09-17T05:26:44;93602.25;;;20.44;43.37
48035;BME280;33812;46.480;6.834;2022-09-17T05:30:46;93585.81;;;20.66;42.44
48035;BME280;33812;46.480;6.834;2022-09-17T05:34:48;93594.00;;;20.70;42.16
48035;BME280;33812;46.480;6.834;2022-09-17T05:38:51;93597.22;;;20.69;40.86
48035;BME280;33812;46.480;6.834;2022-09-17T05:42:57;93601.38;;;21.03;43.43
48035;BME280;33812;46.480;6.834;2022-09-17T05:46:59;93603.50;;;20.69;41.45
48035;BME280;33812;46.480;6.834;2022-09-17T05:51:00;93607.31;;;21.01;41.43
48035;BME280;33812;46.480;6.834;2022-09-17T05:55:05;93614.16;;;20.84;41.85
48035;BME280;33812;46.480;6.834;2022-09-17T05:59:06;93614.16;;;20.84;41.30
48035;BME280;33812;46.480;6.834;2022-09-17T06:03:09;93616.44;;;20.59;42.37
48035;BME280;33812;46.480;6.834;2022-09-17T06:07:11;93622.03;;;20.98;43.03
48035;BME280;33812;46.480;6.834;2022-09-17T06:11:14;93629.66;;;20.94;44.13
48035;BME280;33812;46.480;6.834;2022-09-17T06:15:16;93628.44;;;20.95;43.69
48035;BME280;33812;46.480;6.834;2022-09-17T06:19:18;93621.75;;;20.80;42.45
48035;BME280;33812;46.480;6.834;2022-09-17T06:23:19;93618.06;;;20.99;41.13
48035;BME280;33812;46.480;6.834;2022-09-17T06:27:22;93612.19;;;20.97;42.20
48035;BME280;33812;46.480;6.834;2022-09-17T06:31:24;93624.38;;;20.70;41.90
48035;BME280;33812;46.480;6.834;2022-09-17T06:35:26;93633.16;;;20.82;42.66
48035;BME280;33812;46.480;6.834;2022-09-17T06:39:27;93629.66;;;20.94;42.38
48035;BME280;33812;46.480;6.834;2022-09-17T06:43:30;93641.72;;;21.26;41.75
48035;BME280;33812;46.480;6.834;2022-09-17T06:47:32;93635.66;;;20.76;39.85
48035;BME280;33812;46.480;6.834;2022-09-17T06:51:34;93643.91;;;21.06;40.76
48035;BME280;33812;46.480;6.834;2022-09-17T06:55:35;93642.03;;;21.16;40.63
48035;BME280;33812;46.480;6.834;2022-09-17T06:59:38;93652.00;;;21.39;41.06
48035;BME280;33812;46.480;6.834;2022-09-17T07:03:42;93645.81;;;21.48;39.68
48035;BME280;33812;46.480;6.834;2022-09-17T07:07:44;93649.66;;;21.50;39.75
48035;BME280;33812;46.480;6.834;2022-09-17T07:11:45;93647.56;;;21.55;39.46
48035;BME280;33812;46.480;6.834;2022-09-17T07:15:53;93657.84;;;21.28;38.54
48035;BME280;33812;46.480;6.834;2022-09-17T07:19:55;93653.00;;;21.45;38.45
48035;BME280;33812;46.480;6.834;2022-09-17T07:23:56;93666.81;;;21.32;38.75
48035;BME280;33812;46.480;6.834;2022-09-17T07:27:58;93672.91;;;21.27;38.38
48035;BME280;33812;46.480;6.834;2022-09-17T07:32:02;93681.75;;;21.35;37.39
48035;BME280;33812;46.480;6.834;2022-09-17T07:36:05;93675.66;;;21.40;37.98
48035;BME280;33812;46.480;6.834;2022-09-17T07:40:08;93679.44;;;21.46;37.61
48035;BME280;33812;46.480;6.834;2022-09-17T07:44:09;93687.59;;;21.37;37.55
48035;BME280;33812;46.480;6.834;2022-09-17T07:48:12;93678.31;;;21.44;38.23
48035;BME280;33812;46.480;6.834;2022-09-17T07:52:14;93700.66;;;21.49;37.33
48035;BME280;33812;46.480;6.834;2022-09-17T07:56:16;93691.25;;;21.60;38.40
48035;BME280;33812;46.480;6.834;2022-09-17T08:00:20;93703.19;;;21.70;37.79
48035;BME280;33812;46.480;6.834;2022-09-17T08:04:23;93700.22;;;21.77;37.35
48035;BME280;33812;46.480;6.834;2022-09-17T08:08:25;93706.75;;;21.70;37.72
48035;BME280;33812;46.480;6.834;2022-09-17T08:12:27;93706.97;;;21.63;36.44
48035;BME280;33812;46.480;6.834;2022-09-17T08:16:29;93715.50;;;21.69;36.69
48035;BME280;33812;46.480;6.834;2022-09-17T08:20:32;93721.56;;;21.64;36.32
48035;BME280;33812;46.480;6.834;2022-09-17T08:24:34;93724.00;;;21.74;35.82
48035;BME280;33812;46.480;6.834;2022-09-17T08:28:36;93722.00;;;21.75;35.66
48035;BME280;33812;46.480;6.834;2022-09-17T08:32:37;93725.88;;;21.65;35.88
48035;BME280;33812;46.480;6.834;2022-09-17T08:36:40;93732.75;;;21.73;35.71
48035;BME280;33812;46.480;6.834;2022-09-17T08:40:53;93747.38;;;21.86;35.02
48035;BME280;33812;46.480;6.834;2022-09-17T08:44:58;93746.16;;;21.74;35.18
48035;BME280;33812;46.480;6.834;2022-09-17T08:49:06;93757.03;;;21.82;35.11
48035;BME280;33812;46.480;6.834;2022-09-17T08:53:25;93755.44;;;21.81;35.68
48035;BME280;33812;46.480;6.834;2022-09-17T08:57:36;93765.84;;;21.77;35.71
48035;BME280;33812;46.480;6.834;2022-09-17T09:01:44;93767.38;;;21.78;35.44
48035;BME280;33812;46.480;6.834;2022-09-17T09:05:52;93775.13;;;21.70;35.26
48035;BME280;33812;46.480;6.834;2022-09-17T09:10:04;93767.81;;;21.76;35.04
48035;BME280;33812;46.480;6.834;2022-09-17T09:14:13;93764.97;;;21.80;35.07
48035;BME280;33812;46.480;6.834;2022-09-17T09:18:18;93767.75;;;21.80;35.27
48035;BME280;33812;46.480;6.834;2022-09-17T09:22:43;93767.19;;;21.85;35.85
48035;BME280;33812;46.480;6.834;2022-09-17T09:26:54;93763.75;;;21.81;35.67
48035;BME280;33812;46.480;6.834;2022-09-17T09:31:10;93779.22;;;21.65;35.29
48035;BME280;33812;46.480;6.834;2022-09-17T09:35:17;93783.41;;;21.70;35.38
48035;BME280;33812;46.480;6.834;2022-09-17T09:39:21;93778.44;;;21.78;35.23
48035;BME280;33812;46.480;6.834;2022-09-17T09:43:33;93770.25;;;21.74;35.55
48035;BME280;33812;46.480;6.834;2022-09-17T09:47:47;93779.16;;;21.82;35.93
48035;BME280;33812;46.480;6.834;2022-09-17T09:52:03;93774.50;;;21.92;36.86
48035;BME280;33812;46.480;6.834;2022-09-17T09:56:26;93775.84;;;21.87;36.54
48035;BME280;33812;46.480;6.834;2022-09-17T10:00:36;93780.22;;;21.71;35.23
48035;BME280;33812;46.480;6.834;2022-09-17T10:04:38;93772.84;;;21.81;35.86
48035;BME280;33812;46.480;6.834;2022-09-17T10:08:42;93782.13;;;21.88;36.44
48035;BME280;33812;46.480;6.834;2022-09-17T10:13:10;93785.56;;;21.92;36.86
48035;BME280;33812;46.480;6.834;2022-09-17T10:17:16;93793.97;;;21.88;37.13
48035;BME280;33812;46.480;6.834;2022-09-17T10:21:20;93786.44;;;21.89;36.74
48035;BME280;33812;46.480;6.834;2022-09-17T10:25:30;93788.44;;;21.88;37.69
48035;BME280;33812;46.480;6.834;2022-09-17T10:29:33;93790.09;;;21.85;36.93
48035;BME280;33812;46.480;6.834;2022-09-17T10:33:38;93783.69;;;21.89;37.72
48035;BME280;33812;46.480;6.834;2022-09-17T10:37:42;93784.78;;;21.91;37.75
48035;BME280;33812;46.480;6.834;2022-09-17T10:41:52;93787.31;;;21.98;38.30
48035;BME280;33812;46.480;6.834;2022-09-17T10:45:57;93789.75;;;21.96;38.22
48035;BME280;33812;46.480;6.834;2022-09-17T10:50:01;93793.44;;;22.06;38.39
48035;BME280;33812;46.480;6.834;2022-09-17T10:54:25;93788.56;;;21.97;37.72
48035;BME280;33812;46.480;6.834;2022-09-17T10:58:46;93789.97;;;22.02;37.02
48035;BME280;33812;46.480;6.834;2022-09-17T11:03:25;93787.09;;;22.06;37.20
48035;BME280;33812;46.480;6.834;2022-09-17T11:07:32;93788.88;;;22.13;38.51
48035;BME280;33812;46.480;6.834;2022-09-17T11:11:53;93790.00;;;22.15;37.22
48035;BME280;33812;46.480;6.834;2022-09-17T11:16:13;93796.84;;;22.24;39.19
48035;BME280;33812;46.480;6.834;2022-09-17T11:20:31;93792.84;;;22.25;39.32
48035;BME280;33812;46.480;6.834;2022-09-17T11:29:51;93780.63;;;22.35;35.39
48035;BME280;33812;46.480;6.834;2022-09-17T11:38:38;93780.00;;;22.31;37.43
48035;BME280;33812;46.480;6.834;2022-09-17T11:42:44;93781.97;;;22.30;37.43
48035;BME280;33812;46.480;6.834;2022-09-17T11:46:50;93788.31;;;22.31;35.65
48035;BME280;33812;46.480;6.834;2022-09-17T11:50:57;93783.06;;;22.33;35.32
48035;BME280;33812;46.480;6.834;2022-09-17T11:55:07;93793.50;;;22.29;35.08
48035;BME280;33812;46.480;6.834;2022-09-17T11:59:16;93786.41;;;22.28;36.34
48035;BME280;33812;46.480;6.834;2022-09-17T12:03:24;93789.41;;;22.33;35.81
48035;BME280;33812;46.480;6.834;2022-09-17T12:07:39;93783.34;;;22.26;35.61
48035;BME280;33812;46.480;6.834;2022-09-17T12:11:57;93769.03;;;22.27;36.11
48035;BME280;33812;46.480;6.834;2022-09-17T12:16:10;93776.13;;;22.28;34.55
48035;BME280;33812;46.480;6.834;2022-09-17T12:20:23;93776.44;;;22.30;34.95
48035;BME280;33812;46.480;6.834;2022-09-17T12:24:28;93772.78;;;22.33;33.73
48035;BME280;33812;46.480;6.834;2022-09-17T12:28:35;93769.34;;;22.29;34.31
48035;BME280;33812;46.480;6.834;2022-09-17T12:32:47;93772.25;;;22.26;35.64
48035;BME280;33812;46.480;6.834;2022-09-17T12:36:59;93771.25;;;22.32;35.54
48035;BME280;33812;46.480;6.834;2022-09-17T12:41:06;93780.00;;;22.31;35.36
48035;BME280;33812;46.480;6.834;2022-09-17T12:45:36;93765.03;;;22.28;34.89
48035;BME280;33812;46.480;6.834;2022-09-17T12:49:56;93761.19;;;22.26;34.74
48035;BME280;33812;46.480;6.834;2022-09-17T12:54:07;93759.50;;;22.28;35.81
48035;BME280;33812;46.480;6.834;2022-09-17T12:58:23;93765.81;;;22.29;34.94
48035;BME280;33812;46.480;6.834;2022-09-17T13:02:33;93767.38;;;22.30;34.57
48035;BME280;33812;46.480;6.834;2022-09-17T13:06:58;93764.94;;;22.32;36.17
48035;BME280;33812;46.480;6.834;2022-09-17T13:15:45;93747.41;;;22.35;35.34
48035;BME280;33812;46.480;6.834;2022-09-17T13:19:53;93765.03;;;22.28;35.26
48035;BME280;33812;46.480;6.834;2022-09-17T13:24:00;93765.16;;;22.25;34.81
48035;BME280;33812;46.480;6.834;2022-09-17T13:28:05;93769.03;;;22.27;34.76
48035;BME280;33812;46.480;6.834;2022-09-17T13:32:08;93769.16;;;22.24;33.79
48035;BME280;33812;46.480;6.834;2022-09-17T13:36:36;93771.94;;;22.24;33.99
48035;BME280;33812;46.480;6.834;2022-09-17T13:40:39;93765.94;;;22.25;33.24
48035;BME280;33812;46.480;6.834;2022-09-17T13:44:44;93767.81;;;22.28;34.54
48035;BME280;33812;46.480;6.834;2022-09-17T13:48:59;93776.22;;;22.25;34.27
48035;BME280;33812;46.480;6.834;2022-09-17T13:53:15;93769.34;;;22.29;34.94
48035;BME280;33812;46.480;6.834;2022-09-17T13:57:18;93769.50;;;22.26;34.38
48035;BME280;33812;46.480;6.834;2022-09-17T14:02:00;93781.44;;;22.36;33.13
48035;BME280;33812;46.480;6.834;2022-09-17T14:10:42;93770.06;;;22.20;32.84
48035;BME280;33812;46.480;6.834;2022-09-17T14:14:50;93773.91;;;22.23;33.88
48035;BME280;33812;46.480;6.834;2022-09-17T14:18:57;93769.78;;;22.28;34.05
48035;BME280;33812;46.480;6.834;2022-09-17T14:23:00;93774.88;;;22.29;34.17
48035;BME280;33812;46.480;6.834;2022-09-17T14:27:28;93780.75;;;22.31;34.06
48035;BME280;33812;46.480;6.834;2022-09-17T14:31:34;93781.66;;;22.28;34.31
48035;BME280;33812;46.480;6.834;2022-09-17T14:35:39;93778.44;;;22.30;34.30
48035;BME280;33812;46.480;6.834;2022-09-17T14:39:41;93769.69;;;22.31;33.83
48035;BME280;33812;46.480;6.834;2022-09-17T14:43:48;93771.69;;;22.31;34.32
48035;BME280;33812;46.480;6.834;2022-09-17T14:48:27;93768.81;;;22.34;34.36
48035;BME280;33812;46.480;6.834;2022-09-17T14:52:31;93771.59;;;22.34;34.07
48035;BME280;33812;46.480;6.834;2022-09-17T14:56:34;93768.03;;;22.34;34.13
48035;BME280;33812;46.480;6.834;2022-09-17T15:00:38;93767.13;;;22.37;34.13
48035;BME280;33812;46.480;6.834;2022-09-17T15:04:41;93764.69;;;22.39;33.78
48035;BME280;33812;46.480;6.834;2022-09-17T15:08:44;93767.13;;;22.37;34.18
48035;BME280;33812;46.480;6.834;2022-09-17T15:12:48;93762.25;;;22.41;34.20
48035;BME280;33812;46.480;6.834;2022-09-17T15:16:54;93762.25;;;22.41;34.96
48035;BME280;33812;46.480;6.834;2022-09-17T15:20:57;93771.75;;;22.53;35.53
48035;BME280;33812;46.480;6.834;2022-09-17T15:25:04;93774.09;;;22.42;34.81
48035;BME280;33812;46.480;6.834;2022-09-17T15:29:10;93779.63;;;22.42;34.99
48035;BME280;33812;46.480;6.834;2022-09-17T15:33:13;93777.88;;;22.35;34.41
48035;BME280;33812;46.480;6.834;2022-09-17T15:37:20;93777.53;;;22.33;33.49
48035;BME280;33812;46.480;6.834;2022-09-17T15:41:29;93778.66;;;22.36;33.88
48035;BME280;33812;46.480;6.834;2022-09-17T15:45:33;93782.22;;;22.36;35.17
48035;BME280;33812;46.480;6.834;2022-09-17T15:49:39;93782.41;;;22.42;35.45
48035;BME280;33812;46.480;6.834;2022-09-17T15:53:50;93777.41;;;22.37;34.86
48035;BME280;33812;46.480;6.834;2022-09-17T15:57:52;93786.84;;;22.39;34.64
48035;BME280;33812;46.480;6.834;2022-09-17T16:01:56;93790.50;;;22.36;34.14
48035;BME280;33812;46.480;6.834;2022-09-17T16:05:59;93790.75;;;22.29;34.16
48035;BME280;33812;46.480;6.834;2022-09-17T16:10:01;93782.31;;;22.32;33.48
48035;BME280;33812;46.480;6.834;2022-09-17T16:14:03;93788.88;;;22.26;33.69
48035;BME280;33812;46.480;6.834;2022-09-17T16:18:04;93792.72;;;22.28;33.91
48035;BME280;33812;46.480;6.834;2022-09-17T16:22:08;93792.84;;;22.25;34.05
48035;BME280;33812;46.480;6.834;2022-09-17T16:26:13;93804.25;;;22.27;33.51
48035;BME280;33812;46.480;6.834;2022-09-17T16:30:18;93801.25;;;22.34;34.06
48035;BME280;33812;46.480;6.834;2022-09-17T16:34:20;93806.69;;;22.25;33.74
48035;BME280;33812;46.480;6.834;2022-09-17T16:38:23;93803.56;;;22.22;33.68
48035;BME280;33812;46.480;6.834;2022-09-17T16:42:29;93808.56;;;22.28;33.47
48035;BME280;33812;46.480;6.834;2022-09-17T16:46:31;93814.66;;;22.36;34.09
48035;BME280;33812;46.480;6.834;2022-09-17T16:50:33;93806.00;;;22.33;33.93
48035;BME280;33812;46.480;6.834;2022-09-17T16:54:36;93811.53;;;22.33;33.33
48035;BME280;33812;46.480;6.834;2022-09-17T16:58:39;93813.88;;;22.35;33.43
48035;BME280;33812;46.480;6.834;2022-09-17T17:02:41;93819.41;;;22.35;32.91
48035;BME280;33812;46.480;6.834;2022-09-17T17:06:42;93824.59;;;22.33;33.40
48035;BME280;33812;46.480;6.834;2022-09-17T17:10:48;93823.28;;;22.25;32.72
48035;BME280;33812;46.480;6.834;2022-09-17T17:14:52;93824.59;;;22.33;34.17
48035;BME280;33812;46.480;6.834;2022-09-17T17:18:55;93824.59;;;22.33;33.96
48035;BME280;33812;46.480;6.834;2022-09-17T17:22:56;93823.28;;;22.25;33.21
48035;BME280;33812;46.480;6.834;2022-09-17T17:27:00;93825.41;;;22.20;33.39
48035;BME280;33812;46.480;6.834;2022-09-17T17:31:04;93830.69;;;22.28;34.29
48035;BME280;33812;46.480;6.834;2022-09-17T17:35:07;93828.50;;;22.22;35.16
48035;BME280;33812;46.480;6.834;2022-09-17T17:39:09;93835.13;;;22.12;34.69
48035;BME280;33812;46.480;6.834;2022-09-17T17:43:13;93826.72;;;22.16;35.36
48035;BME280;33812;46.480;6.834;2022-09-17T17:47:15;93821.63;;;22.14;36.11
48035;BME280;33812;46.480;6.834;2022-09-17T17:51:17;93842.66;;;22.25;37.30
48035;BME280;33812;46.480;6.834;2022-09-17T17:55:19;93846.75;;;22.33;37.05
48035;BME280;33812;46.480;6.834;2022-09-17T17:59:22;93845.31;;;22.28;37.29
48035;BME280;33812;46.480;6.834;2022-09-17T18:03:25;93846.09;;;22.29;36.82
48035;BME280;33812;46.480;6.834;2022-09-17T18:07:27;93854.75;;;22.31;36.89
48035;BME280;33812;46.480;6.834;2022-09-17T18:11:30;93867.13;;;22.26;36.70
48035;BME280;33812;46.480;6.834;2022-09-17T18:15:35;93862.38;;;22.27;36.42
48035;BME280;33812;46.480;6.834;2022-09-17T18:19:37;93862.28;;;22.30;36.53
48035;BME280;33812;46.480;6.834;2022-09-17T18:23:39;93870.81;;;22.23;35.99
48035;BME280;33812;46.480;6.834;2022-09-17T18:27:41;93878.56;;;22.15;35.95
48035;BME280;33812;46.480;6.834;2022-09-17T18:31:44;93880.53;;;22.28;36.12
48035;BME280;33812;46.480;6.834;2022-09-17T18:35:47;93886.72;;;21.20;29.90
48035;BME280;33812;46.480;6.834;2022-09-17T18:39:49;93886.13;;;20.46;30.42
48035;BME280;33812;46.480;6.834;2022-09-17T18:43:50;93891.13;;;20.51;30.23
48035;BME280;33812;46.480;6.834;2022-09-17T18:47:54;93897.22;;;20.96;32.31
48035;BME280;33812;46.480;6.834;2022-09-17T18:51:55;93904.28;;;21.43;32.35
48035;BME280;33812;46.480;6.834;2022-09-17T18:56:02;93899.41;;;21.47;32.51
48035;BME280;33812;46.480;6.834;2022-09-17T19:00:05;93897.00;;;21.49;32.22
48035;BME280;33812;46.480;6.834;2022-09-17T19:04:11;93915.00;;;21.41;32.58
48035;BME280;33812;46.480;6.834;2022-09-17T19:08:20;93915.03;;;21.54;33.00
48035;BME280;33812;46.480;6.834;2022-09-17T19:12:21;93912.66;;;21.40;32.48
48035;BME280;33812;46.480;6.834;2022-09-17T19:16:23;93920.78;;;21.47;34.24
48035;BME280;33812;46.480;6.834;2022-09-17T19:20:26;93927.41;;;21.49;34.85
48035;BME280;33812;46.480;6.834;2022-09-17T19:24:29;93923.91;;;21.62;35.73
48035;BME280;33812;46.480;6.834;2022-09-17T19:28:31;93937.13;;;21.41;34.28
48035;BME280;33812;46.480;6.834;2022-09-17T19:32:33;93942.47;;;21.32;35.03
48035;BME280;33812;46.480;6.834;2022-09-17T19:36:38;93938.03;;;21.51;35.30
48035;BME280;33812;46.480;6.834;2022-09-17T19:40:39;93945.09;;;21.22;34.49
48035;BME280;33812;46.480;6.834;2022-09-17T19:44:43;93946.91;;;21.59;36.79
48035;BME280;33812;46.480;6.834;2022-09-17T19:48:46;93941.19;;;21.66;36.68
48035;BME280;33812;46.480;6.834;2022-09-17T19:52:49;93942.53;;;21.45;34.72
48035;BME280;33812;46.480;6.834;2022-09-17T19:56:51;93949.69;;;21.59;36.48
48035;BME280;33812;46.480;6.834;2022-09-17T20:00:54;93948.59;;;21.40;36.06
48035;BME280;33812;46.480;6.834;2022-09-17T20:04:56;93944.34;;;21.52;36.78
48035;BME280;33812;46.480;6.834;2022-09-17T20:08:59;93942.78;;;21.50;36.08
48035;BME280;33812;46.480;6.834;2022-09-17T20:13:09;93947.72;;;21.72;36.68
48035;BME280;33812;46.480;6.834;2022-09-17T20:17:11;93947.97;;;21.78;36.23
48035;BME280;33812;46.480;6.834;2022-09-17T20:21:18;93953.84;;;21.80;35.77
48035;BME280;33812;46.480;6.834;2022-09-17T20:25:25;93950.34;;;21.63;35.78
48035;BME280;33812;46.480;6.834;2022-09-17T20:29:36;93945.84;;;21.69;35.62
48035;BME280;33812;46.480;6.834;2022-09-17T20:33:46;93947.03;;;21.68;35.98
48035;BME280;33812;46.480;6.834;2022-09-17T20:37:55;93950.53;;;21.56;35.35
48035;BME280;33812;46.480;6.834;2022-09-17T20:42:01;93954.38;;;21.75;36.32
48035;BME280;33812;46.480;6.834;2022-09-17T20:46:09;93957.84;;;21.79;36.06
48035;BME280;33812;46.480;6.834;2022-09-17T20:50:11;93952.47;;;21.72;36.12
48035;BME280;33812;46.480;6.834;2022-09-17T20:54:19;93958.78;;;21.72;36.19
48035;BME280;33812;46.480;6.834;2022-09-17T20:58:23;93957.56;;;21.73;36.13
48035;BME280;33812;46.480;6.834;2022-09-17T21:02:27;93958.63;;;21.80;35.87
48035;BME280;33812;46.480;6.834;2022-09-17T21:06:35;93963.63;;;21.85;36.07
48035;BME280;33812;46.480;6.834;2022-09-17T21:10:41;93960.63;;;21.79;35.48
48035;BME280;33812;46.480;6.834;2022-09-17T21:14:44;93963.00;;;21.77;36.17
48035;BME280;33812;46.480;6.834;2022-09-17T21:18:47;93963.28;;;21.83;36.35
48035;BME280;33812;46.480;6.834;2022-09-17T21:22:50;93963.63;;;21.68;35.58
48035;BME280;33812;46.480;6.834;2022-09-17T21:31:00;93966.09;;;21.66;36.82
48035;BME280;33812;46.480;6.834;2022-09-17T21:35:03;93963.06;;;21.31;36.11
48035;BME280;33812;46.480;6.834;2022-09-17T21:39:08;93965.56;;;21.25;35.94
48035;BME280;33812;46.480;6.834;2022-09-17T21:43:10;93962.38;;;21.10;35.84
48035;BME280;33812;46.480;6.834;2022-09-17T21:47:13;93963.31;;;21.20;36.96
48035;BME280;33812;46.480;6.834;2022-09-17T21:51:18;93956.81;;;20.93;35.49
48035;BME280;33812;46.480;6.834;2022-09-17T21:55:20;93960.22;;;21.01;36.80
48035;BME280;33812;46.480;6.834;2022-09-17T21:59:21;93965.06;;;21.13;36.76
48035;BME280;33812;46.480;6.834;2022-09-17T22:03:25;93956.47;;;20.91;36.60
48035;BME280;33812;46.480;6.834;2022-09-17T22:07:27;93960.81;;;20.92;36.86